sensor_id;sensor_type;location;lat;lon;timestamp;pressure;altitude;pressure_sealevel;temperature;humidity
49949;BME280;35840;45.982;8.890;2023-03-18T00:01:08;98663.41;;;7.16;59.02
49949;BME280;35840;45.982;8.890;2023-03-18T00:03:35;98663.03;;;7.04;59.14
49949;BME280;35840;45.982;8.890;2023-03-18T00:06:13;98661.53;;;7.00;59.58
49949;BME280;35840;45.982;8.890;2023-03-18T00:08:43;98658.44;;;6.92;59.34
49949;BME280;35840;45.982;8.890;2023-03-18T00:11:12;98655.22;;;6.87;59.71
49949;BME280;35840;45.982;8.890;2023-03-18T00:13:39;98657.59;;;6.92;60.04
49949;BME280;35840;45.982;8.890;2023-03-18T00:16:08;98657.50;;;6.95;59.87
49949;BME280;35840;45.982;8.890;2023-03-18T00:18:37;98664.31;;;6.94;60.24
49949;BME280;35840;45.982;8.890;2023-03-18T00:21:05;98660.34;;;6.87;59.74
49949;BME280;35840;45.982;8.890;2023-03-18T00:23:32;98656.97;;;6.86;59.96
49949;BME280;35840;45.982;8.890;2023-03-18T00:26:00;98656.06;;;6.87;60.32
49949;BME280;35840;45.982;8.890;2023-03-18T00:28:28;98647.03;;;6.79;60.27
49949;BME280;35840;45.982;8.890;2023-03-18T00:31:04;98648.06;;;6.75;60.52
49949;BME280;35840;45.982;8.890;2023-03-18T00:33:38;98646.03;;;6.83;60.44
49949;BME280;35840;45.982;8.890;2023-03-18T00:36:13;98650.25;;;6.84;60.38
49949;BME280;35840;45.982;8.890;2023-03-18T00:38:41;98645.41;;;6.78;60.16
49949;BME280;35840;45.982;8.890;2023-03-18T00:41:09;98655.72;;;6.75;60.20
49949;BME280;35840;45.982;8.890;2023-03-18T00:43:43;98645.34;;;6.79;60.63
49949;BME280;35840;45.982;8.890;2023-03-18T00:46:24;98638.28;;;6.84;60.74
49949;BME280;35840;45.982;8.890;2023-03-18T00:48:53;98641.03;;;6.80;60.42
49949;BME280;35840;45.982;8.890;2023-03-18T00:51:22;98640.97;;;6.81;60.68
49949;BME280;35840;45.982;8.890;2023-03-18T00:53:52;98636.66;;;6.83;60.55
49949;BME280;35840;45.982;8.890;2023-03-18T00:56:22;98638.50;;;6.80;60.68
49949;BME280;35840;45.982;8.890;2023-03-18T00:58:51;98635.22;;;6.76;60.82
49949;BME280;35840;45.982;8.890;2023-03-18T01:01:20;98640.31;;;6.76;60.46
49949;BME280;35840;45.982;8.890;2023-03-18T01:03:47;98652.41;;;6.72;60.83
49949;BME280;35840;45.982;8.890;2023-03-18T01:06:22;98652.66;;;6.66;60.84
49949;BME280;35840;45.982;8.890;2023-03-18T01:08:49;98640.91;;;6.62;61.01
49949;BME280;35840;45.982;8.890;2023-03-18T01:11:17;98639.03;;;6.66;61.07
49949;BME280;35840;45.982;8.890;2023-03-18T01:13:46;98632.63;;;6.55;60.92
49949;BME280;35840;45.982;8.890;2023-03-18T01:16:13;98638.34;;;6.62;60.85
49949;BME280;35840;45.982;8.890;2023-03-18T01:18:40;98639.28;;;6.60;61.17
49949;BME280;35840;45.982;8.890;2023-03-18T01:21:08;98638.63;;;6.54;60.86
49949;BME280;35840;45.982;8.890;2023-03-18T01:23:41;98628.53;;;6.51;61.38
49949;BME280;35840;45.982;8.890;2023-03-18T01:26:08;98636.06;;;6.54;61.37
49949;BME280;35840;45.982;8.890;2023-03-18T01:28:39;98619.00;;;6.57;61.11
49949;BME280;35840;45.982;8.890;2023-03-18T01:31:07;98620.69;;;6.56;61.22
49949;BME280;35840;45.982;8.890;2023-03-18T01:33:34;98624.16;;;6.55;61.57
49949;BME280;35840;45.982;8.890;2023-03-18T01:36:03;98617.97;;;6.61;61.72
49949;BME280;35840;45.982;8.890;2023-03-18T01:38:31;98601.03;;;6.58;61.65
49949;BME280;35840;45.982;8.890;2023-03-18T01:41:08;98602.72;;;6.59;61.45
49949;BME280;35840;45.982;8.890;2023-03-18T01:43:37;98605.28;;;6.59;61.33
49949;BME280;35840;45.982;8.890;2023-03-18T01:49:00;98607.09;;;6.55;62.53
49949;BME280;35840;45.982;8.890;2023-03-18T01:51:28;98614.03;;;6.52;62.58
49949;BME280;35840;45.982;8.890;2023-03-18T01:53:56;98605.69;;;6.48;62.35
49949;BME280;35840;45.982;8.890;2023-03-18T01:56:24;98598.91;;;6.47;62.67
49949;BME280;35840;45.982;8.890;2023-03-18T01:58:56;98597.19;;;6.48;63.01
49949;BME280;35840;45.982;8.890;2023-03-18T02:01:47;98595.47;;;6.48;62.84
49949;BME280;35840;45.982;8.890;2023-03-18T02:04:16;98593.94;;;6.44;63.05
49949;BME280;35840;45.982;8.890;2023-03-18T02:06:44;98585.44;;;6.44;63.17
49949;BME280;35840;45.982;8.890;2023-03-18T02:09:11;98588.81;;;6.44;63.38
49949;BME280;35840;45.982;8.890;2023-03-18T02:11:42;98587.16;;;6.43;63.50
49949;BME280;35840;45.982;8.890;2023-03-18T02:14:14;98583.84;;;6.41;63.62
49949;BME280;35840;45.982;8.890;2023-03-18T02:17:02;98580.16;;;6.48;63.62
49949;BME280;35840;45.982;8.890;2023-03-18T02:22:29;98578.06;;;6.58;62.77
49949;BME280;35840;45.982;8.890;2023-03-18T02:27:33;98569.03;;;6.49;63.22
49949;BME280;35840;45.982;8.890;2023-03-18T02:30:06;98570.59;;;6.53;63.73
49949;BME280;35840;45.982;8.890;2023-03-18T02:32:37;98568.06;;;6.52;63.40
49949;BME280;35840;45.982;8.890;2023-03-18T02:35:07;98558.03;;;6.47;63.36
49949;BME280;35840;45.982;8.890;2023-03-18T02:37:37;98558.09;;;6.46;63.53
49949;BME280;35840;45.982;8.890;2023-03-18T02:40:32;98558.03;;;6.47;63.88
49949;BME280;35840;45.982;8.890;2023-03-18T02:43:30;98558.16;;;6.44;63.56
49949;BME280;35840;45.982;8.890;2023-03-18T02:48:46;98551.47;;;6.42;63.82
49949;BME280;35840;45.982;8.890;2023-03-18T02:51:16;98550.63;;;6.41;64.15
49949;BME280;35840;45.982;8.890;2023-03-18T02:53:44;98537.16;;;6.37;63.90
49949;BME280;35840;45.982;8.890;2023-03-18T02:56:12;98541.13;;;6.45;63.75
49949;BME280;35840;45.982;8.890;2023-03-18T02:58:41;98549.69;;;6.44;63.80
49949;BME280;35840;45.982;8.890;2023-03-18T03:01:10;98536.47;;;6.34;63.90
49949;BME280;35840;45.982;8.890;2023-03-18T03:03:37;98537.53;;;6.28;63.92
49949;BME280;35840;45.982;8.890;2023-03-18T03:06:05;98539.84;;;6.34;64.60
49949;BME280;35840;45.982;8.890;2023-03-18T03:08:33;98544.69;;;6.41;63.63
49949;BME280;35840;45.982;8.890;2023-03-18T03:11:00;98537.16;;;6.37;63.28
49949;BME280;35840;45.982;8.890;2023-03-18T03:13:29;98541.72;;;6.29;63.93
49949;BME280;35840;45.982;8.890;2023-03-18T03:15:57;98540.22;;;6.25;63.89
49949;BME280;35840;45.982;8.890;2023-03-18T03:18:24;98540.22;;;6.25;63.87
49949;BME280;35840;45.982;8.890;2023-03-18T03:20:52;98536.88;;;6.23;64.39
49949;BME280;35840;45.982;8.890;2023-03-18T03:23:19;98522.50;;;6.20;63.83
49949;BME280;35840;45.982;8.890;2023-03-18T03:25:47;98534.06;;;6.29;63.58
49949;BME280;35840;45.982;8.890;2023-03-18T03:28:14;98541.69;;;6.31;63.82
49949;BME280;35840;45.982;8.890;2023-03-18T03:30:42;98538.34;;;6.29;63.61
49949;BME280;35840;45.982;8.890;2023-03-18T03:33:09;98521.63;;;6.22;63.66
49949;BME280;35840;45.982;8.890;2023-03-18T03:35:39;98537.00;;;6.20;64.30
49949;BME280;35840;45.982;8.890;2023-03-18T03:38:06;98534.59;;;6.17;64.31
49949;BME280;35840;45.982;8.890;2023-03-18T03:40:33;98530.22;;;6.19;64.34
49949;BME280;35840;45.982;8.890;2023-03-18T03:43:00;98529.47;;;6.17;65.09
49949;BME280;35840;45.982;8.890;2023-03-18T03:45:27;98534.59;;;6.17;64.87
49949;BME280;35840;45.982;8.890;2023-03-18T03:47:54;98524.53;;;6.12;64.83
49949;BME280;35840;45.982;8.890;2023-03-18T03:50:21;98526.25;;;6.12;64.87
49949;BME280;35840;45.982;8.890;2023-03-18T03:52:48;98519.41;;;6.14;65.17
49949;BME280;35840;45.982;8.890;2023-03-18T03:55:17;98519.34;;;6.15;65.32
49949;BME280;35840;45.982;8.890;2023-03-18T03:57:46;98522.50;;;6.20;64.33
49949;BME280;35840;45.982;8.890;2023-03-18T04:00:15;98502.16;;;6.19;65.14
49949;BME280;35840;45.982;8.890;2023-03-18T04:02:47;98518.25;;;6.21;64.69
49949;BME280;35840;45.982;8.890;2023-03-18T04:05:18;98506.50;;;6.17;64.94
49949;BME280;35840;45.982;8.890;2023-03-18T04:07:46;98514.09;;;6.18;65.35
49949;BME280;35840;45.982;8.890;2023-03-18T04:10:15;98511.47;;;6.20;65.66
49949;BME280;35840;45.982;8.890;2023-03-18T04:12:43;98516.47;;;6.23;65.60
49949;BME280;35840;45.982;8.890;2023-03-18T04:15:15;98517.41;;;6.20;65.06
49949;BME280;35840;45.982;8.890;2023-03-18T04:17:44;98512.56;;;6.14;65.36
49949;BME280;35840;45.982;8.890;2023-03-18T04:20:17;98513.50;;;6.12;65.56
49949;BME280;35840;45.982;8.890;2023-03-18T04:22:44;98516.84;;;6.14;65.81
49949;BME280;35840;45.982;8.890;2023-03-18T04:25:12;98517.47;;;6.19;66.06
49949;BME280;35840;45.982;8.890;2023-03-18T04:27:41;98520.16;;;6.16;65.61
49949;BME280;35840;45.982;8.890;2023-03-18T04:30:11;98513.63;;;6.09;65.94
49949;BME280;35840;45.982;8.890;2023-03-18T04:32:54;98510.06;;;6.13;66.20
49949;BME280;35840;45.982;8.890;2023-03-18T04:35:22;98521.28;;;6.09;66.17
49949;BME280;35840;45.982;8.890;2023-03-18T04:37:49;98518.66;;;6.10;66.21
49949;BME280;35840;45.982;8.890;2023-03-18T04:40:17;98511.97;;;6.08;66.35
49949;BME280;35840;45.982;8.890;2023-03-18T04:42:44;98507.94;;;6.02;65.85
49949;BME280;35840;45.982;8.890;2023-03-18T04:45:15;98508.72;;;6.04;66.05
49949;BME280;35840;45.982;8.890;2023-03-18T04:47:43;98507.81;;;6.05;66.53
49949;BME280;35840;45.982;8.890;2023-03-18T04:50:12;98511.06;;;6.09;66.51
49949;BME280;35840;45.982;8.890;2023-03-18T04:52:40;98509.28;;;6.11;65.90
49949;BME280;35840;45.982;8.890;2023-03-18T04:55:10;98495.88;;;6.06;66.04
49949;BME280;35840;45.982;8.890;2023-03-18T04:57:39;98501.75;;;6.08;66.40
49949;BME280;35840;45.982;8.890;2023-03-18T05:00:14;98482.69;;;5.94;66.13
49949;BME280;35840;45.982;8.890;2023-03-18T05:02:44;98499.53;;;6.00;66.57
49949;BME280;35840;45.982;8.890;2023-03-18T05:05:12;98501.31;;;5.96;65.95
49949;BME280;35840;45.982;8.890;2023-03-18T05:07:44;98498.59;;;6.01;66.16
49949;BME280;35840;45.982;8.890;2023-03-18T05:10:13;98496.22;;;5.96;66.14
49949;BME280;35840;45.982;8.890;2023-03-18T05:12:40;98487.81;;;5.94;66.51
49949;BME280;35840;45.982;8.890;2023-03-18T05:15:10;98486.31;;;5.89;66.54
49949;BME280;35840;45.982;8.890;2023-03-18T05:17:42;98483.84;;;5.87;66.35
49949;BME280;35840;45.982;8.890;2023-03-18T05:20:10;98487.88;;;5.93;66.58
49949;BME280;35840;45.982;8.890;2023-03-18T05:22:43;98485.38;;;5.91;66.03
49949;BME280;35840;45.982;8.890;2023-03-18T05:25:15;98499.72;;;5.94;65.50
49949;BME280;35840;45.982;8.890;2023-03-18T05:27:42;98494.31;;;5.79;65.78
49949;BME280;35840;45.982;8.890;2023-03-18T05:30:16;98473.81;;;5.60;65.93
49949;BME280;35840;45.982;8.890;2023-03-18T05:32:48;98499.88;;;5.67;66.33
49949;BME280;35840;45.982;8.890;2023-03-18T05:35:17;98513.25;;;5.74;65.85
49949;BME280;35840;45.982;8.890;2023-03-18T05:37:47;98499.78;;;5.70;65.97
49949;BME280;35840;45.982;8.890;2023-03-18T05:40:15;98506.59;;;5.69;66.46
49949;BME280;35840;45.982;8.890;2023-03-18T05:42:54;98500.06;;;5.62;66.71
49949;BME280;35840;45.982;8.890;2023-03-18T05:45:31;98487.31;;;5.62;66.07
49949;BME280;35840;45.982;8.890;2023-03-18T05:47:59;98499.31;;;5.60;66.59
49949;BME280;35840;45.982;8.890;2023-03-18T05:50:30;98496.75;;;5.60;66.40
49949;BME280;35840;45.982;8.890;2023-03-18T05:53:01;98500.13;;;5.61;66.06
49949;BME280;35840;45.982;8.890;2023-03-18T05:55:33;98496.75;;;5.60;66.03
49949;BME280;35840;45.982;8.890;2023-03-18T05:58:01;98491.88;;;5.54;66.36
49949;BME280;35840;45.982;8.890;2023-03-18T06:00:29;98492.78;;;5.53;66.62
49949;BME280;35840;45.982;8.890;2023-03-18T06:02:59;98490.22;;;5.53;66.79
49949;BME280;35840;45.982;8.890;2023-03-18T06:05:28;98496.88;;;5.57;67.26
49949;BME280;35840;45.982;8.890;2023-03-18T06:07:56;98504.22;;;5.65;66.73
49949;BME280;35840;45.982;8.890;2023-03-18T06:10:24;98506.66;;;5.68;67.05
49949;BME280;35840;45.982;8.890;2023-03-18T06:12:51;98510.25;;;5.62;66.67
49949;BME280;35840;45.982;8.890;2023-03-18T06:15:22;98513.38;;;5.71;66.86
49949;BME280;35840;45.982;8.890;2023-03-18T06:17:49;98512.53;;;5.70;66.84
49949;BME280;35840;45.982;8.890;2023-03-18T06:20:16;98516.91;;;5.66;66.87
49949;BME280;35840;45.982;8.890;2023-03-18T06:22:46;98522.06;;;5.65;67.44
49949;BME280;35840;45.982;8.890;2023-03-18T06:25:17;98515.50;;;5.59;67.77
49949;BME280;35840;45.982;8.890;2023-03-18T06:27:45;98527.13;;;5.66;67.20
49949;BME280;35840;45.982;8.890;2023-03-18T06:30:16;98520.25;;;5.68;67.38
49949;BME280;35840;45.982;8.890;2023-03-18T06:32:43;98518.47;;;5.71;67.71
49949;BME280;35840;45.982;8.890;2023-03-18T06:35:11;98526.88;;;5.73;67.62
49949;BME280;35840;45.982;8.890;2023-03-18T06:37:38;98525.25;;;5.72;67.74
49949;BME280;35840;45.982;8.890;2023-03-18T06:40:08;98521.84;;;5.71;67.27
49949;BME280;35840;45.982;8.890;2023-03-18T06:42:36;98528.59;;;5.72;67.18
49949;BME280;35840;45.982;8.890;2023-03-18T06:45:09;98519.34;;;5.69;68.05
49949;BME280;35840;45.982;8.890;2023-03-18T06:47:46;98524.22;;;5.76;68.30
49949;BME280;35840;45.982;8.890;2023-03-18T06:50:13;98522.25;;;5.82;68.93
49949;BME280;35840;45.982;8.890;2023-03-18T06:52:41;98524.41;;;5.93;68.72
49949;BME280;35840;45.982;8.890;2023-03-18T06:55:12;98513.91;;;6.01;68.81
49949;BME280;35840;45.982;8.890;2023-03-18T06:57:43;98518.72;;;6.09;69.41
49949;BME280;35840;45.982;8.890;2023-03-18T07:00:14;98521.22;;;6.10;70.01
49949;BME280;35840;45.982;8.890;2023-03-18T07:02:42;98519.25;;;6.17;69.83
49949;BME280;35840;45.982;8.890;2023-03-18T07:05:11;98518.19;;;6.23;69.59
49949;BME280;35840;45.982;8.890;2023-03-18T07:07:40;98526.53;;;6.26;69.57
49949;BME280;35840;45.982;8.890;2023-03-18T07:10:14;98524.44;;;6.36;68.60
49949;BME280;35840;45.982;8.890;2023-03-18T07:12:43;98512.47;;;6.38;67.32
49949;BME280;35840;45.982;8.890;2023-03-18T07:15:10;98527.41;;;6.47;67.26
49949;BME280;35840;45.982;8.890;2023-03-18T07:17:37;98522.81;;;6.55;67.00
49949;BME280;35840;45.982;8.890;2023-03-18T07:20:04;98523.63;;;6.56;67.16
49949;BME280;35840;45.982;8.890;2023-03-18T07:22:35;98516.63;;;6.61;67.37
49949;BME280;35840;45.982;8.890;2023-03-18T07:25:03;98523.06;;;6.70;67.62
49949;BME280;35840;45.982;8.890;2023-03-18T07:27:29;98515.31;;;6.71;66.66
49949;BME280;35840;45.982;8.890;2023-03-18T07:29:56;98516.78;;;6.77;67.12
49949;BME280;35840;45.982;8.890;2023-03-18T07:32:23;98516.41;;;6.86;65.23
49949;BME280;35840;45.982;8.890;2023-03-18T07:34:50;98515.47;;;6.89;64.52
49949;BME280;35840;45.982;8.890;2023-03-18T07:37:17;98532.25;;;6.95;65.13
49949;BME280;35840;45.982;8.890;2023-03-18T07:39:44;98504.78;;;6.79;65.39
49949;BME280;35840;45.982;8.890;2023-03-18T07:42:10;98529.13;;;6.88;64.98
49949;BME280;35840;45.982;8.890;2023-03-18T07:44:44;98523.06;;;6.91;65.15
49949;BME280;35840;45.982;8.890;2023-03-18T07:47:10;98530.44;;;6.97;65.48
49949;BME280;35840;45.982;8.890;2023-03-18T07:49:40;98531.19;;;6.99;65.07
49949;BME280;35840;45.982;8.890;2023-03-18T07:52:08;98529.22;;;7.05;64.92
49949;BME280;35840;45.982;8.890;2023-03-18T07:54:35;98524.03;;;7.07;64.83
49949;BME280;35840;45.982;8.890;2023-03-18T07:57:02;98520.22;;;7.17;64.56
49949;BME280;35840;45.982;8.890;2023-03-18T07:59:30;98533.66;;;7.21;64.42
49949;BME280;35840;45.982;8.890;2023-03-18T08:01:57;98533.28;;;7.30;63.71
49949;BME280;35840;45.982;8.890;2023-03-18T08:04:23;98527.25;;;7.31;63.39
49949;BME280;35840;45.982;8.890;2023-03-18T08:06:50;98522.75;;;7.36;62.38
49949;BME280;35840;45.982;8.890;2023-03-18T08:09:18;98533.56;;;7.43;63.29
49949;BME280;35840;45.982;8.890;2023-03-18T08:11:44;98540.13;;;7.49;64.08
49949;BME280;35840;45.982;8.890;2023-03-18T08:14:11;98532.59;;;7.46;63.23
49949;BME280;35840;45.982;8.890;2023-03-18T08:16:39;98534.94;;;7.50;62.54
49949;BME280;35840;45.982;8.890;2023-03-18T08:19:06;98532.38;;;7.50;61.30
49949;BME280;35840;45.982;8.890;2023-03-18T08:21:33;98536.59;;;7.51;60.92
49949;BME280;35840;45.982;8.890;2023-03-18T08:23:59;98531.28;;;7.56;62.21
49949;BME280;35840;45.982;8.890;2023-03-18T08:26:26;98541.00;;;7.67;60.26
49949;BME280;35840;45.982;8.890;2023-03-18T08:28:53;98537.34;;;7.72;59.80
49949;BME280;35840;45.982;8.890;2023-03-18T08:31:20;98530.28;;;7.78;59.93
49949;BME280;35840;45.982;8.890;2023-03-18T08:33:47;98531.50;;;7.88;58.15
49949;BME280;35840;45.982;8.890;2023-03-18T08:36:15;98534.75;;;7.91;57.88
49949;BME280;35840;45.982;8.890;2023-03-18T08:38:41;98526.28;;;7.91;58.27
49949;BME280;35840;45.982;8.890;2023-03-18T08:41:08;98526.38;;;8.07;59.43
49949;BME280;35840;45.982;8.890;2023-03-18T08:43:35;98532.69;;;8.17;59.42
49949;BME280;35840;45.982;8.890;2023-03-18T08:46:05;98529.41;;;8.33;60.14
49949;BME280;35840;45.982;8.890;2023-03-18T08:48:32;98538.53;;;8.38;58.42
49949;BME280;35840;45.982;8.890;2023-03-18T08:51:04;98533.16;;;8.43;58.91
49949;BME280;35840;45.982;8.890;2023-03-18T08:53:33;98527.78;;;8.49;58.43
49949;BME280;35840;45.982;8.890;2023-03-18T08:56:01;98529.28;;;8.53;57.41
49949;BME280;35840;45.982;8.890;2023-03-18T08:58:28;98528.84;;;8.63;57.14
49949;BME280;35840;45.982;8.890;2023-03-18T09:00:55;98529.53;;;8.66;55.95
49949;BME280;35840;45.982;8.890;2023-03-18T09:03:22;98530.94;;;8.72;56.08
49949;BME280;35840;45.982;8.890;2023-03-18T09:05:50;98518.72;;;8.77;53.63
49949;BME280;35840;45.982;8.890;2023-03-18T09:08:18;98527.91;;;8.81;54.77
49949;BME280;35840;45.982;8.890;2023-03-18T09:10:45;98523.31;;;8.88;55.51
49949;BME280;35840;45.982;8.890;2023-03-18T09:13:12;98517.41;;;9.03;55.03
49949;BME280;35840;45.982;8.890;2023-03-18T09:15:39;98520.84;;;9.02;54.99
49949;BME280;35840;45.982;8.890;2023-03-18T09:18:06;98521.69;;;9.03;55.62
49949;BME280;35840;45.982;8.890;2023-03-18T09:20:38;98519.34;;;8.98;54.95
49949;BME280;35840;45.982;8.890;2023-03-18T09:23:10;98511.66;;;8.98;53.87
49949;BME280;35840;45.982;8.890;2023-03-18T09:25:40;98504.75;;;9.00;53.55
49949;BME280;35840;45.982;8.890;2023-03-18T09:28:10;98509.28;;;9.11;55.13
49949;BME280;35840;45.982;8.890;2023-03-18T09:30:37;98512.72;;;9.27;53.88
49949;BME280;35840;45.982;8.890;2023-03-18T09:33:04;98494.25;;;9.37;53.31
49949;BME280;35840;45.982;8.890;2023-03-18T09:35:32;98513.47;;;9.45;52.92
49949;BME280;35840;45.982;8.890;2023-03-18T09:38:01;98511.66;;;9.63;53.83
49949;BME280;35840;45.982;8.890;2023-03-18T09:53:44;98492.63;;;10.14;51.88
49949;BME280;35840;45.982;8.890;2023-03-18T09:56:20;98489.63;;;10.22;51.20
49949;BME280;35840;45.982;8.890;2023-03-18T09:59:00;98496.16;;;10.43;54.21
49949;BME280;35840;45.982;8.890;2023-03-18T10:01:31;98494.22;;;10.47;49.60
49949;BME280;35840;45.982;8.890;2023-03-18T10:06:51;98499.13;;;10.80;51.89
49949;BME280;35840;45.982;8.890;2023-03-18T10:09:25;98496.38;;;10.98;48.81
49949;BME280;35840;45.982;8.890;2023-03-18T10:12:04;98493.78;;;11.12;50.10
49949;BME280;35840;45.982;8.890;2023-03-18T10:14:41;98491.03;;;11.15;52.07
49949;BME280;35840;45.982;8.890;2023-03-18T10:17:52;98502.06;;;11.32;49.98
49949;BME280;35840;45.982;8.890;2023-03-18T10:20:37;98492.41;;;11.35;48.56
49949;BME280;35840;45.982;8.890;2023-03-18T10:26:56;98484.34;;;11.54;45.91
49949;BME280;35840;45.982;8.890;2023-03-18T10:34:20;98485.53;;;11.63;47.71
49949;BME280;35840;45.982;8.890;2023-03-18T10:37:15;98490.94;;;11.73;46.28
49949;BME280;35840;45.982;8.890;2023-03-18T10:39:44;98492.75;;;11.85;47.52
49949;BME280;35840;45.982;8.890;2023-03-18T10:42:24;98485.53;;;11.91;47.38
49949;BME280;35840;45.982;8.890;2023-03-18T10:44:54;98492.84;;;12.11;47.48
49949;BME280;35840;45.982;8.890;2023-03-18T10:47:31;98490.41;;;12.35;49.33
49949;BME280;35840;45.982;8.890;2023-03-18T10:50:05;98482.78;;;12.34;46.62
49949;BME280;35840;45.982;8.890;2023-03-18T10:53:06;98479.78;;;12.40;47.21
49949;BME280;35840;45.982;8.890;2023-03-18T10:55:49;98478.19;;;12.52;46.17
49949;BME280;35840;45.982;8.890;2023-03-18T10:58:22;98483.84;;;12.70;45.80
49949;BME280;35840;45.982;8.890;2023-03-18T11:00:49;98474.94;;;12.87;46.48
49949;BME280;35840;45.982;8.890;2023-03-18T11:03:23;98475.06;;;12.85;45.70
49949;BME280;35840;45.982;8.890;2023-03-18T11:05:53;98470.31;;;12.92;47.15
49949;BME280;35840;45.982;8.890;2023-03-18T11:08:35;98467.72;;;13.05;44.19
49949;BME280;35840;45.982;8.890;2023-03-18T11:13:47;98463.47;;;13.04;44.50
49949;BME280;35840;45.982;8.890;2023-03-18T11:16:48;98462.09;;;13.24;44.59
49949;BME280;35840;45.982;8.890;2023-03-18T11:21:48;98451.06;;;13.22;44.25
49949;BME280;35840;45.982;8.890;2023-03-18T11:24:26;98455.66;;;13.30;43.23
49949;BME280;35840;45.982;8.890;2023-03-18T11:27:22;98450.84;;;13.25;42.49
49949;BME280;35840;45.982;8.890;2023-03-18T11:29:57;98452.78;;;13.34;43.52
49949;BME280;35840;45.982;8.890;2023-03-18T11:32:31;98443.16;;;13.49;43.08
49949;BME280;35840;45.982;8.890;2023-03-18T11:35:06;98442.38;;;13.36;43.51
49949;BME280;35840;45.982;8.890;2023-03-18T11:37:35;98439.03;;;13.34;43.28
49949;BME280;35840;45.982;8.890;2023-03-18T11:40:25;98444.88;;;13.24;44.45
49949;BME280;35840;45.982;8.890;2023-03-18T11:42:56;98441.34;;;13.38;44.98
49949;BME280;35840;45.982;8.890;2023-03-18T11:59:15;98416.34;;;13.99;45.05
49949;BME280;35840;45.982;8.890;2023-03-18T12:20:49;98406.44;;;14.28;41.98
49949;BME280;35840;45.982;8.890;2023-03-18T12:26:25;98393.88;;;14.35;41.39
49949;BME280;35840;45.982;8.890;2023-03-18T12:29:31;98366.25;;;14.35;42.17
49949;BME280;35840;45.982;8.890;2023-03-18T12:43:25;98368.84;;;14.92;42.24
49949;BME280;35840;45.982;8.890;2023-03-18T12:49:16;98382.34;;;14.95;39.96
49949;BME280;35840;45.982;8.890;2023-03-18T12:54:20;98370.13;;;14.97;41.17
49949;BME280;35840;45.982;8.890;2023-03-18T12:56:56;98370.81;;;15.00;42.23
49949;BME280;35840;45.982;8.890;2023-03-18T12:59:44;98375.41;;;15.07;40.51
49949;BME280;35840;45.982;8.890;2023-03-18T13:02:15;98368.53;;;15.18;41.04
49949;BME280;35840;45.982;8.890;2023-03-18T13:04:52;98369.94;;;15.22;40.42
49949;BME280;35840;45.982;8.890;2023-03-18T13:10:11;98363.91;;;14.77;40.83
49949;BME280;35840;45.982;8.890;2023-03-18T13:12:46;98369.06;;;14.55;40.83
49949;BME280;35840;45.982;8.890;2023-03-18T13:15:38;98375.19;;;14.54;41.82
49949;BME280;35840;45.982;8.890;2023-03-18T13:18:22;98358.25;;;14.72;41.62
49949;BME280;35840;45.982;8.890;2023-03-18T13:20:52;98362.84;;;14.91;41.48
49949;BME280;35840;45.982;8.890;2023-03-18T13:23:27;98367.28;;;15.01;41.71
49949;BME280;35840;45.982;8.890;2023-03-18T13:31:09;98363.28;;;15.40;40.92
49949;BME280;35840;45.982;8.890;2023-03-18T13:36:57;98362.31;;;15.20;39.50
49949;BME280;35840;45.982;8.890;2023-03-18T13:39:39;98363.13;;;15.21;40.15
49949;BME280;35840;45.982;8.890;2023-03-18T13:42:30;98365.66;;;15.32;40.53
49949;BME280;35840;45.982;8.890;2023-03-18T13:48:07;98347.50;;;15.43;40.30
49949;BME280;35840;45.982;8.890;2023-03-18T13:50:41;98354.19;;;15.46;38.75
49949;BME280;35840;45.982;8.890;2023-03-18T13:53:24;98356.06;;;15.55;38.39
49949;BME280;35840;45.982;8.890;2023-03-18T13:56:04;98353.66;;;15.63;39.23
49949;BME280;35840;45.982;8.890;2023-03-18T13:58:35;98350.38;;;15.61;39.08
49949;BME280;35840;45.982;8.890;2023-03-18T14:08:45;98342.66;;;15.50;38.81
49949;BME280;35840;45.982;8.890;2023-03-18T14:13:52;98349.28;;;15.43;38.74
49949;BME280;35840;45.982;8.890;2023-03-18T14:16:22;98342.94;;;15.36;39.46
49949;BME280;35840;45.982;8.890;2023-03-18T14:19:19;98343.63;;;15.38;39.58
49949;BME280;35840;45.982;8.890;2023-03-18T14:21:52;98329.22;;;15.45;38.67
49949;BME280;35840;45.982;8.890;2023-03-18T14:24:24;98329.53;;;15.30;38.69
49949;BME280;35840;45.982;8.890;2023-03-18T14:31:59;98325.56;;;15.47;39.14
49949;BME280;35840;45.982;8.890;2023-03-18T14:34:32;98315.16;;;15.59;38.40
49949;BME280;35840;45.982;8.890;2023-03-18T14:42:05;98288.56;;;15.36;38.73
49949;BME280;35840;45.982;8.890;2023-03-18T14:44:44;98315.19;;;15.26;39.57
49949;BME280;35840;45.982;8.890;2023-03-18T14:47:17;98312.50;;;15.17;38.83
49949;BME280;35840;45.982;8.890;2023-03-18T14:50:11;98315.22;;;15.15;39.98
49949;BME280;35840;45.982;8.890;2023-03-18T14:52:42;98310.38;;;15.22;39.66
49949;BME280;35840;45.982;8.890;2023-03-18T14:55:24;98308.50;;;15.12;39.66
49949;BME280;35840;45.982;8.890;2023-03-18T14:57:53;98291.59;;;15.08;40.97
49949;BME280;35840;45.982;8.890;2023-03-18T15:00:21;98300.78;;;15.01;39.47
49949;BME280;35840;45.982;8.890;2023-03-18T15:03:22;98296.25;;;14.82;39.16
49949;BME280;35840;45.982;8.890;2023-03-18T15:05:54;98308.06;;;14.63;39.57
49949;BME280;35840;45.982;8.890;2023-03-18T15:08:34;98304.03;;;14.48;40.09
49949;BME280;35840;45.982;8.890;2023-03-18T15:11:14;98311.44;;;14.41;41.22
49949;BME280;35840;45.982;8.890;2023-03-18T15:13:42;98312.03;;;14.34;40.51
49949;BME280;35840;45.982;8.890;2023-03-18T15:16:11;98320.16;;;14.29;41.25
49949;BME280;35840;45.982;8.890;2023-03-18T15:18:39;98332.13;;;14.30;40.80
49949;BME280;35840;45.982;8.890;2023-03-18T15:21:14;98318.88;;;14.46;41.83
49949;BME280;35840;45.982;8.890;2023-03-18T15:23:49;98311.44;;;14.64;40.86
49949;BME280;35840;45.982;8.890;2023-03-18T15:26:27;98305.91;;;14.91;40.11
49949;BME280;35840;45.982;8.890;2023-03-18T15:28:56;98308.47;;;15.03;39.93
49949;BME280;35840;45.982;8.890;2023-03-18T15:31:30;98306.31;;;15.08;39.44
49949;BME280;35840;45.982;8.890;2023-03-18T15:34:14;98303.34;;;15.12;40.46
49949;BME280;35840;45.982;8.890;2023-03-18T15:36:50;98294.88;;;15.10;39.92
49949;BME280;35840;45.982;8.890;2023-03-18T15:39:28;98298.16;;;15.12;39.20